サンサルバドル の空港の天気 - METARとTAF

エルサルバドル国際空港 ( MSLP / SAL ) - エルサルバドル サンサルバドル
飛行場実況気象(Metar)
観測時間07/18 17:50 CST (07/18 23:50 UTC)
風向・風速南西 3m/s
視程10km以上
天気現象
少しの雲 雲底高度 1220m
気温31℃
湿度62%
気圧1009hPa
METARMSLP 182350Z 23005KT 9999 FEW040 31/23 Q1009 A2982 NOSIG
過去の天気等 Google飛行場航空写真 Wunderground天気予報

過去48時間のMETAR

飛行場予報(TAF)
発表時間: 7/18 15:25 CST (7/18 21:25 UTC)
予報対象時間: 18日18時 CST ~ 19日18時 CST
風向・風速不定 2m/s
視程10km以上
少しの積乱雲 雲底高度 1220m
全天の4割程度の雲 雲底高度 1830m
18日22時 CST から
風向・風速東北東 3m/s
視程10km以上
全天の8割程度の雲 雲底高度 1830m
19日6時 CST から
視程10km以上
なし
19日12時 CST から
風向・風速南西 5m/s
視程10km以上
少しの雲 雲底高度 1010m
少しの積乱雲 雲底高度 1220m
TAF MSLP 182125Z 1900/1924 VRB03KT 9999 FEW040CB SCT060 TX34/1918Z TN24/1912Z
FM190400 06005KT 9999 BKN060
FM191200 CAVOK
FM191800 22010KT 9999 FEW033 FEW040CB